sensor_id;sensor_type;location;lat;lon;timestamp;temperature;humidity
64652;HTU21D;51062;45.120;37.660;2022-07-05T00:01:05;18.51;66.07
64652;HTU21D;51062;45.120;37.660;2022-07-05T00:03:31;18.53;65.98
64652;HTU21D;51062;45.120;37.660;2022-07-05T00:05:58;18.55;65.99
64652;HTU21D;51062;45.120;37.660;2022-07-05T00:08:24;18.57;65.98
64652;HTU21D;51062;45.120;37.660;2022-07-05T00:10:51;18.57;66.04
64652;HTU21D;51062;45.120;37.660;2022-07-05T00:13:17;18.56;66.09
64652;HTU21D;51062;45.120;37.660;2022-07-05T00:15:43;18.55;66.18
64652;HTU21D;51062;45.120;37.660;2022-07-05T00:18:09;18.57;66.08
64652;HTU21D;51062;45.120;37.660;2022-07-05T00:20:35;18.57;66.00
64652;HTU21D;51062;45.120;37.660;2022-07-05T00:23:01;18.57;66.02
64652;HTU21D;51062;45.120;37.660;2022-07-05T00:25:27;18.56;66.17
64652;HTU21D;51062;45.120;37.660;2022-07-05T00:27:53;18.55;66.30
64652;HTU21D;51062;45.120;37.660;2022-07-05T00:30:20;18.55;66.38
64652;HTU21D;51062;45.120;37.660;2022-07-05T00:32:46;18.56;66.45
64652;HTU21D;51062;45.120;37.660;2022-07-05T00:35:12;18.57;66.49
64652;HTU21D;51062;45.120;37.660;2022-07-05T00:37:38;18.58;66.47
64652;HTU21D;51062;45.120;37.660;2022-07-05T00:40:05;18.59;66.47
64652;HTU21D;51062;45.120;37.660;2022-07-05T00:42:33;18.57;66.49
64652;HTU21D;51062;45.120;37.660;2022-07-05T00:45:00;18.55;66.57
64652;HTU21D;51062;45.120;37.660;2022-07-05T00:47:29;18.51;66.68
64652;HTU21D;51062;45.120;37.660;2022-07-05T00:49:55;18.48;66.71
64652;HTU21D;51062;45.120;37.660;2022-07-05T00:52:22;18.46;66.77
64652;HTU21D;51062;45.120;37.660;2022-07-05T00:54:49;18.42;66.79
64652;HTU21D;51062;45.120;37.660;2022-07-05T00:57:16;18.40;66.91
64652;HTU21D;51062;45.120;37.660;2022-07-05T00:59:42;18.38;66.94
64652;HTU21D;51062;45.120;37.660;2022-07-05T01:02:08;18.39;66.93
64652;HTU21D;51062;45.120;37.660;2022-07-05T01:04:34;18.38;66.93
64652;HTU21D;51062;45.120;37.660;2022-07-05T01:07:01;18.38;66.98
64652;HTU21D;51062;45.120;37.660;2022-07-05T01:09:29;18.39;66.88
64652;HTU21D;51062;45.120;37.660;2022-07-05T01:11:55;18.39;66.81
64652;HTU21D;51062;45.120;37.660;2022-07-05T01:14:22;18.39;66.88
64652;HTU21D;51062;45.120;37.660;2022-07-05T01:16:51;18.38;66.94
64652;HTU21D;51062;45.120;37.660;2022-07-05T01:19:19;18.38;66.91
64652;HTU21D;51062;45.120;37.660;2022-07-05T01:21:48;18.38;66.91
64652;HTU21D;51062;45.120;37.660;2022-07-05T01:24:16;18.39;66.87
64652;HTU21D;51062;45.120;37.660;2022-07-05T01:26:45;18.40;66.90
64652;HTU21D;51062;45.120;37.660;2022-07-05T01:29:11;18.38;66.92
64652;HTU21D;51062;45.120;37.660;2022-07-05T01:31:38;18.34;67.01
64652;HTU21D;51062;45.120;37.660;2022-07-05T01:34:06;18.26;67.14
64652;HTU21D;51062;45.120;37.660;2022-07-05T01:36:33;18.18;67.36
64652;HTU21D;51062;45.120;37.660;2022-07-05T01:39:01;18.13;67.55
64652;HTU21D;51062;45.120;37.660;2022-07-05T01:41:29;18.11;67.66
64652;HTU21D;51062;45.120;37.660;2022-07-05T01:43:55;18.11;67.65
64652;HTU21D;51062;45.120;37.660;2022-07-05T01:46:22;18.13;67.65
64652;HTU21D;51062;45.120;37.660;2022-07-05T01:48:53;18.18;67.61
64652;HTU21D;51062;45.120;37.660;2022-07-05T01:51:28;18.19;67.58
64652;HTU21D;51062;45.120;37.660;2022-07-05T01:53:55;18.20;67.44
64652;HTU21D;51062;45.120;37.660;2022-07-05T01:56:21;18.22;67.43
64652;HTU21D;51062;45.120;37.660;2022-07-05T01:58:48;18.22;67.47
64652;HTU21D;51062;45.120;37.660;2022-07-05T02:01:32;18.23;67.46
64652;HTU21D;51062;45.120;37.660;2022-07-05T02:03:59;18.26;67.43
64652;HTU21D;51062;45.120;37.660;2022-07-05T02:06:26;18.25;67.45
64652;HTU21D;51062;45.120;37.660;2022-07-05T02:08:53;18.25;67.39
64652;HTU21D;51062;45.120;37.660;2022-07-05T02:11:19;18.28;67.26
64652;HTU21D;51062;45.120;37.660;2022-07-05T02:13:45;18.30;67.28
64652;HTU21D;51062;45.120;37.660;2022-07-05T02:16:11;18.32;67.39
64652;HTU21D;51062;45.120;37.660;2022-07-05T02:18:37;18.35;67.37
64652;HTU21D;51062;45.120;37.660;2022-07-05T02:21:04;18.40;67.25
64652;HTU21D;51062;45.120;37.660;2022-07-05T02:23:30;18.44;67.21
64652;HTU21D;51062;45.120;37.660;2022-07-05T02:25:57;18.50;67.21
64652;HTU21D;51062;45.120;37.660;2022-07-05T02:28:23;18.53;67.25
64652;HTU21D;51062;45.120;37.660;2022-07-05T02:30:51;18.59;67.23
64652;HTU21D;51062;45.120;37.660;2022-07-05T02:33:18;18.65;67.18
64652;HTU21D;51062;45.120;37.660;2022-07-05T02:35:44;18.73;67.14
64652;HTU21D;51062;45.120;37.660;2022-07-05T02:38:10;18.81;67.01
64652;HTU21D;51062;45.120;37.660;2022-07-05T02:40:36;18.86;66.91
64652;HTU21D;51062;45.120;37.660;2022-07-05T02:43:04;18.92;66.89
64652;HTU21D;51062;45.120;37.660;2022-07-05T02:45:30;18.99;66.90
64652;HTU21D;51062;45.120;37.660;2022-07-05T02:47:59;19.13;66.88
64652;HTU21D;51062;45.120;37.660;2022-07-05T02:50:27;19.41;66.95
64652;HTU21D;51062;45.120;37.660;2022-07-05T02:52:54;19.91;66.77
64652;HTU21D;51062;45.120;37.660;2022-07-05T02:55:20;20.45;66.63
64652;HTU21D;51062;45.120;37.660;2022-07-05T02:57:46;20.99;66.41
64652;HTU21D;51062;45.120;37.660;2022-07-05T03:00:15;21.52;65.95
64652;HTU21D;51062;45.120;37.660;2022-07-05T03:02:44;22.06;65.30
64652;HTU21D;51062;45.120;37.660;2022-07-05T03:05:11;22.53;64.65
64652;HTU21D;51062;45.120;37.660;2022-07-05T03:07:41;22.96;64.14
64652;HTU21D;51062;45.120;37.660;2022-07-05T03:10:07;23.37;63.53
64652;HTU21D;51062;45.120;37.660;2022-07-05T03:12:34;23.81;62.75
64652;HTU21D;51062;45.120;37.660;2022-07-05T03:15:01;24.23;61.89
64652;HTU21D;51062;45.120;37.660;2022-07-05T03:17:28;24.62;61.25
64652;HTU21D;51062;45.120;37.660;2022-07-05T03:19:54;24.97;60.71
64652;HTU21D;51062;45.120;37.660;2022-07-05T03:22:22;25.24;60.13
64652;HTU21D;51062;45.120;37.660;2022-07-05T03:24:49;25.57;59.24
64652;HTU21D;51062;45.120;37.660;2022-07-05T03:27:16;25.92;58.28
64652;HTU21D;51062;45.120;37.660;2022-07-05T03:29:45;26.25;57.68
64652;HTU21D;51062;45.120;37.660;2022-07-05T03:32:11;26.53;56.98
64652;HTU21D;51062;45.120;37.660;2022-07-05T03:34:39;26.82;56.35
64652;HTU21D;51062;45.120;37.660;2022-07-05T03:37:07;27.14;55.85
64652;HTU21D;51062;45.120;37.660;2022-07-05T03:39:34;27.43;54.85
64652;HTU21D;51062;45.120;37.660;2022-07-05T03:42:00;27.70;53.95
64652;HTU21D;51062;45.120;37.660;2022-07-05T03:44:29;27.95;53.39
64652;HTU21D;51062;45.120;37.660;2022-07-05T03:46:59;28.17;52.76
64652;HTU21D;51062;45.120;37.660;2022-07-05T03:49:26;28.40;52.43
64652;HTU21D;51062;45.120;37.660;2022-07-05T03:51:52;28.68;51.95
64652;HTU21D;51062;45.120;37.660;2022-07-05T03:54:19;28.94;51.33
64652;HTU21D;51062;45.120;37.660;2022-07-05T03:56:45;29.21;50.72
64652;HTU21D;51062;45.120;37.660;2022-07-05T03:59:13;29.47;50.24
64652;HTU21D;51062;45.120;37.660;2022-07-05T04:01:39;29.76;49.92
64652;HTU21D;51062;45.120;37.660;2022-07-05T04:04:06;29.97;49.37
64652;HTU21D;51062;45.120;37.660;2022-07-05T04:06:32;30.05;48.93
64652;HTU21D;51062;45.120;37.660;2022-07-05T04:09:00;29.86;49.40
64652;HTU21D;51062;45.120;37.660;2022-07-05T04:11:27;29.46;49.53
64652;HTU21D;51062;45.120;37.660;2022-07-05T04:13:54;29.19;49.51
64652;HTU21D;51062;45.120;37.660;2022-07-05T04:16:21;29.17;49.01
64652;HTU21D;51062;45.120;37.660;2022-07-05T04:18:48;29.45;48.24
64652;HTU21D;51062;45.120;37.660;2022-07-05T04:21:14;29.82;47.75
64652;HTU21D;51062;45.120;37.660;2022-07-05T04:23:42;30.22;47.28
64652;HTU21D;51062;45.120;37.660;2022-07-05T04:26:09;30.65;46.67
64652;HTU21D;51062;45.120;37.660;2022-07-05T04:28:44;31.18;47.28
64652;HTU21D;51062;45.120;37.660;2022-07-05T04:31:13;31.54;45.61
64652;HTU21D;51062;45.120;37.660;2022-07-05T04:33:43;31.85;44.53
64652;HTU21D;51062;45.120;37.660;2022-07-05T04:36:13;32.04;43.90
64652;HTU21D;51062;45.120;37.660;2022-07-05T04:38:39;32.27;43.85
64652;HTU21D;51062;45.120;37.660;2022-07-05T04:41:06;32.62;43.38
64652;HTU21D;51062;45.120;37.660;2022-07-05T04:43:34;33.01;42.88
64652;HTU21D;51062;45.120;37.660;2022-07-05T04:46:03;33.35;41.99
64652;HTU21D;51062;45.120;37.660;2022-07-05T04:48:29;33.63;41.09
64652;HTU21D;51062;45.120;37.660;2022-07-05T04:50:56;33.89;40.63
64652;HTU21D;51062;45.120;37.660;2022-07-05T04:53:23;34.10;39.94
64652;HTU21D;51062;45.120;37.660;2022-07-05T04:55:49;34.35;39.32
64652;HTU21D;51062;45.120;37.660;2022-07-05T04:58:15;34.57;38.56
64652;HTU21D;51062;45.120;37.660;2022-07-05T05:00:41;34.82;38.06
64652;HTU21D;51062;45.120;37.660;2022-07-05T05:03:07;34.99;37.77
64652;HTU21D;51062;45.120;37.660;2022-07-05T05:05:34;35.00;37.04
64652;HTU21D;51062;45.120;37.660;2022-07-05T05:08:00;35.06;36.93
64652;HTU21D;51062;45.120;37.660;2022-07-05T05:10:26;35.21;36.71
64652;HTU21D;51062;45.120;37.660;2022-07-05T05:12:52;35.34;36.21
64652;HTU21D;51062;45.120;37.660;2022-07-05T05:15:18;35.53;36.27
64652;HTU21D;51062;45.120;37.660;2022-07-05T05:17:45;35.67;35.81
64652;HTU21D;51062;45.120;37.660;2022-07-05T05:20:13;35.78;35.76
64652;HTU21D;51062;45.120;37.660;2022-07-05T05:22:40;35.89;35.34
64652;HTU21D;51062;45.120;37.660;2022-07-05T05:25:06;35.87;35.66
64652;HTU21D;51062;45.120;37.660;2022-07-05T05:27:33;35.96;34.89
64652;HTU21D;51062;45.120;37.660;2022-07-05T05:29:59;36.08;34.41
64652;HTU21D;51062;45.120;37.660;2022-07-05T05:32:25;36.27;33.80
64652;HTU21D;51062;45.120;37.660;2022-07-05T05:34:51;36.42;33.44
64652;HTU21D;51062;45.120;37.660;2022-07-05T05:37:17;36.54;33.70
64652;HTU21D;51062;45.120;37.660;2022-07-05T05:39:44;36.57;33.48
64652;HTU21D;51062;45.120;37.660;2022-07-05T05:42:10;36.67;33.74
64652;HTU21D;51062;45.120;37.660;2022-07-05T05:44:36;36.81;33.09
64652;HTU21D;51062;45.120;37.660;2022-07-05T05:47:02;36.84;32.49
64652;HTU21D;51062;45.120;37.660;2022-07-05T05:49:28;36.84;32.22
64652;HTU21D;51062;45.120;37.660;2022-07-05T05:51:54;36.92;32.60
64652;HTU21D;51062;45.120;37.660;2022-07-05T05:54:20;37.15;32.01
64652;HTU21D;51062;45.120;37.660;2022-07-05T05:56:46;37.41;31.40
64652;HTU21D;51062;45.120;37.660;2022-07-05T05:59:13;37.46;31.14
64652;HTU21D;51062;45.120;37.660;2022-07-05T06:01:39;37.57;31.03
64652;HTU21D;51062;45.120;37.660;2022-07-05T06:04:05;37.69;30.40
64652;HTU21D;51062;45.120;37.660;2022-07-05T06:06:31;37.80;29.30
64652;HTU21D;51062;45.120;37.660;2022-07-05T06:08:57;37.84;28.91
64652;HTU21D;51062;45.120;37.660;2022-07-05T06:11:23;37.80;29.06
64652;HTU21D;51062;45.120;37.660;2022-07-05T06:13:49;37.80;29.19
64652;HTU21D;51062;45.120;37.660;2022-07-05T06:16:17;37.87;28.50
64652;HTU21D;51062;45.120;37.660;2022-07-05T06:18:50;37.88;28.19
64652;HTU21D;51062;45.120;37.660;2022-07-05T06:21:16;37.96;28.52
64652;HTU21D;51062;45.120;37.660;2022-07-05T06:23:42;38.03;28.04
64652;HTU21D;51062;45.120;37.660;2022-07-05T06:26:08;38.07;27.20
64652;HTU21D;51062;45.120;37.660;2022-07-05T06:28:34;38.06;27.49
64652;HTU21D;51062;45.120;37.660;2022-07-05T06:31:00;38.08;27.36
64652;HTU21D;51062;45.120;37.660;2022-07-05T06:33:26;38.18;27.63
64652;HTU21D;51062;45.120;37.660;2022-07-05T06:35:53;38.38;27.59
64652;HTU21D;51062;45.120;37.660;2022-07-05T06:38:19;38.51;27.71
64652;HTU21D;51062;45.120;37.660;2022-07-05T06:40:46;38.49;27.34
64652;HTU21D;51062;45.120;37.660;2022-07-05T06:43:13;38.38;26.86
64652;HTU21D;51062;45.120;37.660;2022-07-05T06:45:59;38.32;27.25
64652;HTU21D;51062;45.120;37.660;2022-07-05T06:48:26;38.33;27.80
64652;HTU21D;51062;45.120;37.660;2022-07-05T06:50:52;38.44;28.03
64652;HTU21D;51062;45.120;37.660;2022-07-05T06:53:18;38.53;27.72
64652;HTU21D;51062;45.120;37.660;2022-07-05T06:55:44;38.70;27.36
64652;HTU21D;51062;45.120;37.660;2022-07-05T06:58:11;38.74;27.14
64652;HTU21D;51062;45.120;37.660;2022-07-05T07:00:40;38.70;27.14
64652;HTU21D;51062;45.120;37.660;2022-07-05T07:03:07;38.66;27.49
64652;HTU21D;51062;45.120;37.660;2022-07-05T07:05:33;36.88;27.95
64652;HTU21D;51062;45.120;37.660;2022-07-05T07:07:59;38.75;28.07
64652;HTU21D;51062;45.120;37.660;2022-07-05T07:10:44;38.85;0.00
64652;HTU21D;51062;45.120;37.660;2022-07-05T07:13:10;38.94;27.68
64652;HTU21D;51062;45.120;37.660;2022-07-05T07:15:37;39.10;26.92
64652;HTU21D;51062;45.120;37.660;2022-07-05T07:18:06;39.19;27.04
64652;HTU21D;51062;45.120;37.660;2022-07-05T07:20:33;39.21;26.98
64652;HTU21D;51062;45.120;37.660;2022-07-05T07:22:59;39.20;26.65
64652;HTU21D;51062;45.120;37.660;2022-07-05T07:25:25;39.04;26.87
64652;HTU21D;51062;45.120;37.660;2022-07-05T07:27:53;38.96;26.94
64652;HTU21D;51062;45.120;37.660;2022-07-05T07:30:24;38.91;0.00
64652;HTU21D;51062;45.120;37.660;2022-07-05T07:32:51;38.93;26.48
64652;HTU21D;51062;45.120;37.660;2022-07-05T07:35:17;39.04;25.93
64652;HTU21D;51062;45.120;37.660;2022-07-05T07:37:43;38.99;25.55
64652;HTU21D;51062;45.120;37.660;2022-07-05T07:40:10;39.00;25.70
64652;HTU21D;51062;45.120;37.660;2022-07-05T07:42:36;39.00;0.00
64652;HTU21D;51062;45.120;37.660;2022-07-05T07:45:03;38.89;25.62
64652;HTU21D;51062;45.120;37.660;2022-07-05T07:47:34;38.75;25.85
64652;HTU21D;51062;45.120;37.660;2022-07-05T07:50:02;38.66;25.46
64652;HTU21D;51062;45.120;37.660;2022-07-05T07:52:29;38.64;25.60
64652;HTU21D;51062;45.120;37.660;2022-07-05T07:54:56;38.62;0.00
64652;HTU21D;51062;45.120;37.660;2022-07-05T07:57:22;38.55;26.26
64652;HTU21D;51062;45.120;37.660;2022-07-05T07:59:49;38.44;26.15
64652;HTU21D;51062;45.120;37.660;2022-07-05T08:02:15;38.26;26.45
64652;HTU21D;51062;45.120;37.660;2022-07-05T08:04:43;38.08;26.57
64652;HTU21D;51062;45.120;37.660;2022-07-05T08:07:09;37.79;26.88
64652;HTU21D;51062;45.120;37.660;2022-07-05T08:09:35;37.42;26.54
64652;HTU21D;51062;45.120;37.660;2022-07-05T08:12:01;37.08;27.29
64652;HTU21D;51062;45.120;37.660;2022-07-05T08:14:27;36.73;27.68
64652;HTU21D;51062;45.120;37.660;2022-07-05T08:16:53;36.36;28.55
64652;HTU21D;51062;45.120;37.660;2022-07-05T08:19:20;35.99;28.66
64652;HTU21D;51062;45.120;37.660;2022-07-05T08:22:05;35.63;29.41
64652;HTU21D;51062;45.120;37.660;2022-07-05T08:24:33;0.00;29.84
64652;HTU21D;51062;45.120;37.660;2022-07-05T08:26:59;35.08;30.12
64652;HTU21D;51062;45.120;37.660;2022-07-05T08:29:25;34.88;67.23
64652;HTU21D;51062;45.120;37.660;2022-07-05T08:31:52;34.69;30.20
64652;HTU21D;51062;45.120;37.660;2022-07-05T08:34:18;34.49;30.50
64652;HTU21D;51062;45.120;37.660;2022-07-05T08:36:45;34.30;30.68
64652;HTU21D;51062;45.120;37.660;2022-07-05T08:39:13;34.16;30.90
64652;HTU21D;51062;45.120;37.660;2022-07-05T08:41:42;34.09;31.11
64652;HTU21D;51062;45.120;37.660;2022-07-05T08:44:09;34.05;31.63
64652;HTU21D;51062;45.120;37.660;2022-07-05T08:46:39;34.04;32.23
64652;HTU21D;51062;45.120;37.660;2022-07-05T08:49:06;34.01;31.96
64652;HTU21D;51062;45.120;37.660;2022-07-05T08:51:37;33.96;32.14
64652;HTU21D;51062;45.120;37.660;2022-07-05T08:54:08;33.93;31.81
64652;HTU21D;51062;45.120;37.660;2022-07-05T08:56:35;33.94;31.73
64652;HTU21D;51062;45.120;37.660;2022-07-05T08:59:03;33.91;31.25
64652;HTU21D;51062;45.120;37.660;2022-07-05T09:01:29;33.87;31.05
64652;HTU21D;51062;45.120;37.660;2022-07-05T09:04:00;33.79;31.91
64652;HTU21D;51062;45.120;37.660;2022-07-05T09:06:28;33.82;32.03
64652;HTU21D;51062;45.120;37.660;2022-07-05T09:08:56;33.71;31.85
64652;HTU21D;51062;45.120;37.660;2022-07-05T09:11:39;33.65;32.35
64652;HTU21D;51062;45.120;37.660;2022-07-05T09:14:17;33.65;32.36
64652;HTU21D;51062;45.120;37.660;2022-07-05T09:16:44;33.62;32.51
64652;HTU21D;51062;45.120;37.660;2022-07-05T09:19:10;33.48;32.36
64652;HTU21D;51062;45.120;37.660;2022-07-05T09:21:36;33.41;32.76
64652;HTU21D;51062;45.120;37.660;2022-07-05T09:24:08;33.43;33.25
64652;HTU21D;51062;45.120;37.660;2022-07-05T09:26:38;33.44;33.31
64652;HTU21D;51062;45.120;37.660;2022-07-05T09:29:12;33.49;33.76
64652;HTU21D;51062;45.120;37.660;2022-07-05T09:31:41;33.56;33.41
64652;HTU21D;51062;45.120;37.660;2022-07-05T09:34:12;33.63;33.53
64652;HTU21D;51062;45.120;37.660;2022-07-05T09:36:52;0.00;33.20
64652;HTU21D;51062;45.120;37.660;2022-07-05T09:42:22;33.68;33.57
64652;HTU21D;51062;45.120;37.660;2022-07-05T09:44:56;33.68;34.17
64652;HTU21D;51062;45.120;37.660;2022-07-05T09:47:26;33.71;34.24
64652;HTU21D;51062;45.120;37.660;2022-07-05T09:49:54;33.77;34.23
64652;HTU21D;51062;45.120;37.660;2022-07-05T09:52:37;33.79;34.37
64652;HTU21D;51062;45.120;37.660;2022-07-05T09:55:09;33.62;34.04
64652;HTU21D;51062;45.120;37.660;2022-07-05T09:57:38;33.46;34.44
64652;HTU21D;51062;45.120;37.660;2022-07-05T10:00:25;33.42;34.69
64652;HTU21D;51062;45.120;37.660;2022-07-05T10:02:56;33.44;34.71
64652;HTU21D;51062;45.120;37.660;2022-07-05T10:05:30;33.52;34.99
64652;HTU21D;51062;45.120;37.660;2022-07-05T10:08:01;33.60;35.35
64652;HTU21D;51062;45.120;37.660;2022-07-05T10:10:29;33.66;34.95
64652;HTU21D;51062;45.120;37.660;2022-07-05T10:13:01;33.67;34.76
64652;HTU21D;51062;45.120;37.660;2022-07-05T10:15:34;33.72;34.96
64652;HTU21D;51062;45.120;37.660;2022-07-05T10:18:14;33.75;35.01
64652;HTU21D;51062;45.120;37.660;2022-07-05T10:20:46;33.78;34.23
64652;HTU21D;51062;45.120;37.660;2022-07-05T10:23:13;33.77;34.16
64652;HTU21D;51062;45.120;37.660;2022-07-05T10:25:41;33.77;33.86
64652;HTU21D;51062;45.120;37.660;2022-07-05T10:28:09;33.75;33.51
64652;HTU21D;51062;45.120;37.660;2022-07-05T10:30:36;33.73;33.74
64652;HTU21D;51062;45.120;37.660;2022-07-05T10:33:04;33.74;33.41
64652;HTU21D;51062;45.120;37.660;2022-07-05T10:35:31;33.76;33.78
64652;HTU21D;51062;45.120;37.660;2022-07-05T10:37:58;33.81;34.50
64652;HTU21D;51062;45.120;37.660;2022-07-05T10:40:26;33.89;34.58
64652;HTU21D;51062;45.120;37.660;2022-07-05T10:42:58;33.93;34.57
64652;HTU21D;51062;45.120;37.660;2022-07-05T10:50:47;33.93;33.41
64652;HTU21D;51062;45.120;37.660;2022-07-05T10:53:24;33.90;33.80
64652;HTU21D;51062;45.120;37.660;2022-07-05T10:56:11;33.89;33.49
64652;HTU21D;51062;45.120;37.660;2022-07-05T10:58:48;33.81;33.44
64652;HTU21D;51062;45.120;37.660;2022-07-05T11:03:55;33.68;33.10
64652;HTU21D;51062;45.120;37.660;2022-07-05T11:09:14;33.65;33.55
64652;HTU21D;51062;45.120;37.660;2022-07-05T11:11:46;33.61;33.52
64652;HTU21D;51062;45.120;37.660;2022-07-05T11:16:47;33.52;34.03
64652;HTU21D;51062;45.120;37.660;2022-07-05T11:19:15;33.51;34.41
64652;HTU21D;51062;45.120;37.660;2022-07-05T11:22:06;33.53;34.64
64652;HTU21D;51062;45.120;37.660;2022-07-05T11:24:35;33.50;34.34
64652;HTU21D;51062;45.120;37.660;2022-07-05T11:27:03;33.45;34.47
64652;HTU21D;51062;45.120;37.660;2022-07-05T11:29:49;33.40;34.57
64652;HTU21D;51062;45.120;37.660;2022-07-05T11:32:18;33.41;35.13
64652;HTU21D;51062;45.120;37.660;2022-07-05T11:34:47;33.43;35.08
64652;HTU21D;51062;45.120;37.660;2022-07-05T11:37:23;33.42;34.89
64652;HTU21D;51062;45.120;37.660;2022-07-05T11:42:50;33.31;34.57
64652;HTU21D;51062;45.120;37.660;2022-07-05T11:45:17;33.23;34.02
64652;HTU21D;51062;45.120;37.660;2022-07-05T11:47:43;33.16;33.76
64652;HTU21D;51062;45.120;37.660;2022-07-05T11:50:11;33.07;34.12
64652;HTU21D;51062;45.120;37.660;2022-07-05T11:52:38;33.08;34.37
64652;HTU21D;51062;45.120;37.660;2022-07-05T11:55:09;33.06;34.47
64652;HTU21D;51062;45.120;37.660;2022-07-05T11:57:36;33.06;34.31
64652;HTU21D;51062;45.120;37.660;2022-07-05T12:00:04;33.01;34.10
64652;HTU21D;51062;45.120;37.660;2022-07-05T12:02:44;32.96;34.12
64652;HTU21D;51062;45.120;37.660;2022-07-05T12:05:10;32.96;34.49
64652;HTU21D;51062;45.120;37.660;2022-07-05T12:07:37;32.94;34.12
64652;HTU21D;51062;45.120;37.660;2022-07-05T12:10:04;32.90;33.92
64652;HTU21D;51062;45.120;37.660;2022-07-05T12:12:49;32.86;33.84
64652;HTU21D;51062;45.120;37.660;2022-07-05T12:15:23;32.85;34.12
64652;HTU21D;51062;45.120;37.660;2022-07-05T12:17:53;32.86;34.37
64652;HTU21D;51062;45.120;37.660;2022-07-05T12:20:41;32.85;34.27
64652;HTU21D;51062;45.120;37.660;2022-07-05T12:23:07;32.82;34.42
64652;HTU21D;51062;45.120;37.660;2022-07-05T12:25:34;32.82;34.53
64652;HTU21D;51062;45.120;37.660;2022-07-05T12:28:03;0.00;34.80
64652;HTU21D;51062;45.120;37.660;2022-07-05T12:30:32;32.84;34.86
64652;HTU21D;51062;45.120;37.660;2022-07-05T12:33:09;32.84;34.34
64652;HTU21D;51062;45.120;37.660;2022-07-05T12:35:42;32.82;34.17
64652;HTU21D;51062;45.120;37.660;2022-07-05T12:40:43;32.72;33.99
64652;HTU21D;51062;45.120;37.660;2022-07-05T12:43:17;32.71;34.05
64652;HTU21D;51062;45.120;37.660;2022-07-05T12:46:04;32.68;34.25
64652;HTU21D;51062;45.120;37.660;2022-07-05T12:48:38;32.68;34.26
64652;HTU21D;51062;45.120;37.660;2022-07-05T12:51:07;32.68;34.39
64652;HTU21D;51062;45.120;37.660;2022-07-05T12:53:34;32.67;34.31
64652;HTU21D;51062;45.120;37.660;2022-07-05T12:56:23;32.62;34.56
64652;HTU21D;51062;45.120;37.660;2022-07-05T12:59:09;32.58;34.60
64652;HTU21D;51062;45.120;37.660;2022-07-05T13:01:42;32.52;34.53
64652;HTU21D;51062;45.120;37.660;2022-07-05T13:04:18;32.48;34.68
64652;HTU21D;51062;45.120;37.660;2022-07-05T13:06:53;32.46;34.92
64652;HTU21D;51062;45.120;37.660;2022-07-05T13:09:32;32.43;34.70
64652;HTU21D;51062;45.120;37.660;2022-07-05T13:14:33;32.34;34.55
64652;HTU21D;51062;45.120;37.660;2022-07-05T13:17:00;0.00;34.69
64652;HTU21D;51062;45.120;37.660;2022-07-05T13:19:26;32.25;34.60
64652;HTU21D;51062;45.120;37.660;2022-07-05T13:21:52;32.17;34.65
64652;HTU21D;51062;45.120;37.660;2022-07-05T13:24:18;0.00;35.18
64652;HTU21D;51062;45.120;37.660;2022-07-05T13:26:45;32.11;35.71
64652;HTU21D;51062;45.120;37.660;2022-07-05T13:29:11;32.10;35.88
64652;HTU21D;51062;45.120;37.660;2022-07-05T13:31:37;32.08;36.14
64652;HTU21D;51062;45.120;37.660;2022-07-05T13:34:04;32.07;0.00
64652;HTU21D;51062;45.120;37.660;2022-07-05T13:36:30;32.02;36.37
64652;HTU21D;51062;45.120;37.660;2022-07-05T13:38:56;32.00;36.47
64652;HTU21D;51062;45.120;37.660;2022-07-05T13:41:22;31.96;36.69
64652;HTU21D;51062;45.120;37.660;2022-07-05T13:43:48;31.93;36.91
64652;HTU21D;51062;45.120;37.660;2022-07-05T13:46:14;31.89;36.80
64652;HTU21D;51062;45.120;37.660;2022-07-05T13:48:41;31.88;36.85
64652;HTU21D;51062;45.120;37.660;2022-07-05T13:51:07;31.86;37.01
64652;HTU21D;51062;45.120;37.660;2022-07-05T13:53:33;31.85;36.89
64652;HTU21D;51062;45.120;37.660;2022-07-05T13:56:04;111.01;36.92
64652;HTU21D;51062;45.120;37.660;2022-07-05T13:58:30;31.79;37.21
64652;HTU21D;51062;45.120;37.660;2022-07-05T14:00:56;31.75;37.10
64652;HTU21D;51062;45.120;37.660;2022-07-05T14:03:22;31.72;37.22
64652;HTU21D;51062;45.120;37.660;2022-07-05T14:05:48;31.66;37.20
64652;HTU21D;51062;45.120;37.660;2022-07-05T14:08:15;31.63;37.27
64652;HTU21D;51062;45.120;37.660;2022-07-05T14:10:54;31.58;37.69
64652;HTU21D;51062;45.120;37.660;2022-07-05T14:13:24;31.52;37.82
64652;HTU21D;51062;45.120;37.660;2022-07-05T14:15:50;31.48;38.00
64652;HTU21D;51062;45.120;37.660;2022-07-05T14:18:18;31.43;38.08
64652;HTU21D;51062;45.120;37.660;2022-07-05T14:20:45;31.39;38.33
64652;HTU21D;51062;45.120;37.660;2022-07-05T14:23:13;31.36;38.32
64652;HTU21D;51062;45.120;37.660;2022-07-05T14:25:42;31.30;38.30
64652;HTU21D;51062;45.120;37.660;2022-07-05T14:28:09;31.26;38.14
64652;HTU21D;51062;45.120;37.660;2022-07-05T14:30:42;31.21;38.23
64652;HTU21D;51062;45.120;37.660;2022-07-05T14:33:10;31.15;38.27
64652;HTU21D;51062;45.120;37.660;2022-07-05T14:35:38;31.12;38.36
64652;HTU21D;51062;45.120;37.660;2022-07-05T14:38:05;31.10;38.37
64652;HTU21D;51062;45.120;37.660;2022-07-05T14:40:31;31.07;38.57
64652;HTU21D;51062;45.120;37.660;2022-07-05T14:42:58;31.06;38.66
64652;HTU21D;51062;45.120;37.660;2022-07-05T14:45:25;31.02;38.82
64652;HTU21D;51062;45.120;37.660;2022-07-05T14:47:52;31.00;39.16
64652;HTU21D;51062;45.120;37.660;2022-07-05T14:50:19;30.96;39.40
64652;HTU21D;51062;45.120;37.660;2022-07-05T14:52:47;30.94;39.63
64652;HTU21D;51062;45.120;37.660;2022-07-05T14:55:13;30.89;39.74
64652;HTU21D;51062;45.120;37.660;2022-07-05T14:57:40;30.84;40.01
64652;HTU21D;51062;45.120;37.660;2022-07-05T15:00:08;30.81;40.26
64652;HTU21D;51062;45.120;37.660;2022-07-05T15:02:36;30.77;40.37
64652;HTU21D;51062;45.120;37.660;2022-07-05T15:05:03;30.70;40.51
64652;HTU21D;51062;45.120;37.660;2022-07-05T15:07:30;30.68;40.52
64652;HTU21D;51062;45.120;37.660;2022-07-05T15:09:56;30.62;40.68
64652;HTU21D;51062;45.120;37.660;2022-07-05T15:12:22;30.59;40.78
64652;HTU21D;51062;45.120;37.660;2022-07-05T15:14:49;30.53;40.87
64652;HTU21D;51062;45.120;37.660;2022-07-05T15:17:15;30.47;41.02
64652;HTU21D;51062;45.120;37.660;2022-07-05T15:19:41;30.40;40.81
64652;HTU21D;51062;45.120;37.660;2022-07-05T15:22:08;30.34;40.72
64652;HTU21D;51062;45.120;37.660;2022-07-05T15:24:36;30.26;40.64
64652;HTU21D;51062;45.120;37.660;2022-07-05T15:27:02;30.20;40.80
64652;HTU21D;51062;45.120;37.660;2022-07-05T15:29:28;30.15;40.89
64652;HTU21D;51062;45.120;37.660;2022-07-05T15:31:56;30.09;41.13
64652;HTU21D;51062;45.120;37.660;2022-07-05T15:34:23;30.01;41.07